sensor_id;sensor_type;location;lat;lon;timestamp;pressure;altitude;pressure_sealevel;temperature;humidity
59419;BME280;45224;50.904;6.038;2023-04-04T00:00:44;101004.66;;;3.21;53.58
59419;BME280;45224;50.904;6.038;2023-04-04T00:02:15;101001.06;;;3.18;53.38
59419;BME280;45224;50.904;6.038;2023-04-04T00:03:45;101009.72;;;3.20;53.30
59419;BME280;45224;50.904;6.038;2023-04-04T00:05:20;101008.13;;;3.22;53.68
59419;BME280;45224;50.904;6.038;2023-04-04T00:06:51;101003.16;;;3.25;52.91
59419;BME280;45224;50.904;6.038;2023-04-04T00:08:21;100998.84;;;3.24;53.48
59419;BME280;45224;50.904;6.038;2023-04-04T00:09:52;101001.53;;;3.27;53.40
59419;BME280;45224;50.904;6.038;2023-04-04T00:11:22;100999.84;;;3.27;52.94
59419;BME280;45224;50.904;6.038;2023-04-04T00:12:53;101001.38;;;3.24;53.51
59419;BME280;45224;50.904;6.038;2023-04-04T00:14:24;100996.28;;;3.24;53.51
59419;BME280;45224;50.904;6.038;2023-04-04T00:15:54;100990.00;;;3.17;53.39
59419;BME280;45224;50.904;6.038;2023-04-04T00:17:25;100997.06;;;3.23;53.03
59419;BME280;45224;50.904;6.038;2023-04-04T00:18:55;100995.09;;;3.17;53.05
59419;BME280;45224;50.904;6.038;2023-04-04T00:20:25;100990.94;;;3.19;53.33
59419;BME280;45224;50.904;6.038;2023-04-04T00:21:56;100994.09;;;3.14;53.35
59419;BME280;45224;50.904;6.038;2023-04-04T00:23:26;100990.53;;;3.11;53.28
59419;BME280;45224;50.904;6.038;2023-04-04T00:24:57;100999.13;;;3.12;53.09
59419;BME280;45224;50.904;6.038;2023-04-04T00:26:28;100997.56;;;3.16;53.42
59419;BME280;45224;50.904;6.038;2023-04-04T00:27:58;100999.19;;;3.14;53.01
59419;BME280;45224;50.904;6.038;2023-04-04T00:29:29;100997.94;;;3.05;53.74
59419;BME280;45224;50.904;6.038;2023-04-04T00:31:00;100998.13;;;3.10;53.98
59419;BME280;45224;50.904;6.038;2023-04-04T00:32:31;100993.31;;;2.98;53.96
59419;BME280;45224;50.904;6.038;2023-04-04T00:34:02;100989.44;;;3.06;53.67
59419;BME280;45224;50.904;6.038;2023-04-04T00:35:32;100991.13;;;3.06;54.06
59419;BME280;45224;50.904;6.038;2023-04-04T00:37:03;100995.59;;;3.10;53.27
59419;BME280;45224;50.904;6.038;2023-04-04T00:38:36;100984.34;;;3.06;53.34
59419;BME280;45224;50.904;6.038;2023-04-04T00:40:07;100995.53;;;3.08;53.74
59419;BME280;45224;50.904;6.038;2023-04-04T00:41:38;100995.38;;;3.05;53.71
59419;BME280;45224;50.904;6.038;2023-04-04T00:43:09;100996.41;;;3.09;53.39
59419;BME280;45224;50.904;6.038;2023-04-04T00:44:39;100983.94;;;2.99;53.53
59419;BME280;45224;50.904;6.038;2023-04-04T00:46:10;100987.41;;;2.99;53.56
59419;BME280;45224;50.904;6.038;2023-04-04T00:47:44;100990.84;;;3.00;53.55
59419;BME280;45224;50.904;6.038;2023-04-04T00:49:15;100996.97;;;3.03;53.69
59419;BME280;45224;50.904;6.038;2023-04-04T00:50:46;101001.13;;;3.01;53.04
59419;BME280;45224;50.904;6.038;2023-04-04T00:52:17;101000.50;;;2.89;53.25
59419;BME280;45224;50.904;6.038;2023-04-04T00:53:47;101001.94;;;2.84;53.79
59419;BME280;45224;50.904;6.038;2023-04-04T00:55:20;101002.28;;;2.90;53.74
59419;BME280;45224;50.904;6.038;2023-04-04T00:56:51;100996.22;;;2.88;54.15
59419;BME280;45224;50.904;6.038;2023-04-04T00:58:24;100997.88;;;2.87;53.81
59419;BME280;45224;50.904;6.038;2023-04-04T00:59:56;101000.66;;;2.92;53.24
59419;BME280;45224;50.904;6.038;2023-04-04T01:01:27;100995.53;;;2.92;53.29
59419;BME280;45224;50.904;6.038;2023-04-04T01:03:00;100994.13;;;2.81;54.42
59419;BME280;45224;50.904;6.038;2023-04-04T01:04:31;100999.09;;;2.78;54.18
59419;BME280;45224;50.904;6.038;2023-04-04T01:06:02;100992.41;;;2.80;53.76
59419;BME280;45224;50.904;6.038;2023-04-04T01:07:34;101005.78;;;2.76;54.29
59419;BME280;45224;50.904;6.038;2023-04-04T01:09:05;101004.50;;;2.84;53.96
59419;BME280;45224;50.904;6.038;2023-04-04T01:10:36;101004.19;;;2.78;53.77
59419;BME280;45224;50.904;6.038;2023-04-04T01:12:08;101003.72;;;2.52;55.09
59419;BME280;45224;50.904;6.038;2023-04-04T01:13:39;101002.63;;;2.63;54.50
59419;BME280;45224;50.904;6.038;2023-04-04T01:15:10;100997.84;;;2.53;54.75
59419;BME280;45224;50.904;6.038;2023-04-04T01:16:41;101005.03;;;2.60;54.44
59419;BME280;45224;50.904;6.038;2023-04-04T01:18:13;101002.28;;;2.41;55.63
59419;BME280;45224;50.904;6.038;2023-04-04T01:20:09;101004.13;;;2.43;55.36
59419;BME280;45224;50.904;6.038;2023-04-04T01:21:45;101008.47;;;2.44;54.80
59419;BME280;45224;50.904;6.038;2023-04-04T01:23:17;101007.09;;;2.51;54.64
59419;BME280;45224;50.904;6.038;2023-04-04T01:24:50;101005.66;;;2.40;54.77
59419;BME280;45224;50.904;6.038;2023-04-04T01:26:22;101005.97;;;2.46;55.05
59419;BME280;45224;50.904;6.038;2023-04-04T01:27:54;101008.50;;;2.29;55.42
59419;BME280;45224;50.904;6.038;2023-04-04T01:29:25;100995.44;;;2.40;54.86
59419;BME280;45224;50.904;6.038;2023-04-04T01:31:00;101014.50;;;2.30;54.96
59419;BME280;45224;50.904;6.038;2023-04-04T01:32:36;101014.72;;;2.18;55.75
59419;BME280;45224;50.904;6.038;2023-04-04T01:37:00;101015.22;;;2.27;55.66
59419;BME280;45224;50.904;6.038;2023-04-04T01:40:25;101020.03;;;2.37;54.86
59419;BME280;45224;50.904;6.038;2023-04-04T01:41:59;101014.25;;;2.42;55.05
59419;BME280;45224;50.904;6.038;2023-04-04T01:43:32;101014.25;;;2.42;55.17
59419;BME280;45224;50.904;6.038;2023-04-04T01:45:06;101005.81;;;2.43;55.22
59419;BME280;45224;50.904;6.038;2023-04-04T01:46:38;101004.13;;;2.43;55.23
59419;BME280;45224;50.904;6.038;2023-04-04T01:48:09;101008.22;;;2.40;55.20
59419;BME280;45224;50.904;6.038;2023-04-04T01:49:40;101013.16;;;2.36;56.28
59419;BME280;45224;50.904;6.038;2023-04-04T01:51:12;101012.28;;;2.36;56.80
59419;BME280;45224;50.904;6.038;2023-04-04T01:52:43;100997.75;;;2.35;56.19
59419;BME280;45224;50.904;6.038;2023-04-04T01:54:14;101003.72;;;2.35;55.72
59419;BME280;45224;50.904;6.038;2023-04-04T01:55:46;100991.28;;;2.25;56.74
59419;BME280;45224;50.904;6.038;2023-04-04T01:57:19;100997.44;;;2.29;55.94
59419;BME280;45224;50.904;6.038;2023-04-04T01:58:49;101003.41;;;2.29;56.02
59419;BME280;45224;50.904;6.038;2023-04-04T02:00:21;100998.16;;;2.26;56.21
59419;BME280;45224;50.904;6.038;2023-04-04T02:01:51;101004.06;;;2.25;56.03
59419;BME280;45224;50.904;6.038;2023-04-04T02:03:22;100994.47;;;2.21;56.44
59419;BME280;45224;50.904;6.038;2023-04-04T02:04:52;100994.47;;;2.21;56.34
59419;BME280;45224;50.904;6.038;2023-04-04T02:06:23;100998.38;;;2.14;56.67
59419;BME280;45224;50.904;6.038;2023-04-04T02:07:55;100996.66;;;1.98;57.40
59419;BME280;45224;50.904;6.038;2023-04-04T02:09:35;100997.94;;;1.90;57.72
59419;BME280;45224;50.904;6.038;2023-04-04T02:11:06;100995.28;;;1.89;57.10
59419;BME280;45224;50.904;6.038;2023-04-04T02:12:36;100990.69;;;1.98;56.95
59419;BME280;45224;50.904;6.038;2023-04-04T02:14:07;100990.03;;;1.86;57.61
59419;BME280;45224;50.904;6.038;2023-04-04T02:15:37;100995.38;;;1.90;57.45
59419;BME280;45224;50.904;6.038;2023-04-04T02:17:08;100989.16;;;1.85;57.97
59419;BME280;45224;50.904;6.038;2023-04-04T02:18:41;100987.63;;;1.89;58.01
59419;BME280;45224;50.904;6.038;2023-04-04T02:20:11;100986.94;;;1.91;57.73
59419;BME280;45224;50.904;6.038;2023-04-04T02:21:42;100983.63;;;1.77;58.42
59419;BME280;45224;50.904;6.038;2023-04-04T02:23:12;100991.50;;;1.66;58.65
59419;BME280;45224;50.904;6.038;2023-04-04T02:24:43;100984.44;;;1.76;58.80
59419;BME280;45224;50.904;6.038;2023-04-04T02:26:13;100989.78;;;1.81;57.75
59419;BME280;45224;50.904;6.038;2023-04-04T02:27:44;100985.47;;;1.80;57.99
59419;BME280;45224;50.904;6.038;2023-04-04T02:29:14;100992.66;;;1.87;57.55
59419;BME280;45224;50.904;6.038;2023-04-04T02:30:47;100992.81;;;1.90;57.71
59419;BME280;45224;50.904;6.038;2023-04-04T02:32:17;100992.81;;;1.90;57.77
59419;BME280;45224;50.904;6.038;2023-04-04T02:33:48;100992.66;;;1.87;57.86
59419;BME280;45224;50.904;6.038;2023-04-04T02:35:21;100992.03;;;1.91;57.76
59419;BME280;45224;50.904;6.038;2023-04-04T02:36:53;100995.47;;;1.92;57.45
59419;BME280;45224;50.904;6.038;2023-04-04T02:38:25;100991.97;;;1.90;57.84
59419;BME280;45224;50.904;6.038;2023-04-04T02:39:56;100984.22;;;1.88;58.46
59419;BME280;45224;50.904;6.038;2023-04-04T02:41:26;100979.59;;;1.81;58.34
59419;BME280;45224;50.904;6.038;2023-04-04T02:42:57;100982.84;;;1.78;58.76
59419;BME280;45224;50.904;6.038;2023-04-04T02:44:27;100976.72;;;1.75;58.93
59419;BME280;45224;50.904;6.038;2023-04-04T02:45:58;100973.34;;;1.76;58.32
59419;BME280;45224;50.904;6.038;2023-04-04T02:47:31;100972.56;;;1.77;58.15
59419;BME280;45224;50.904;6.038;2023-04-04T02:49:02;100979.50;;;1.79;58.64
59419;BME280;45224;50.904;6.038;2023-04-04T02:50:34;100975.13;;;1.77;58.96
59419;BME280;45224;50.904;6.038;2023-04-04T02:52:05;100974.94;;;1.74;58.91
59419;BME280;45224;50.904;6.038;2023-04-04T02:53:40;100974.78;;;1.71;58.74
59419;BME280;45224;50.904;6.038;2023-04-04T02:55:22;100974.78;;;1.71;58.98
59419;BME280;45224;50.904;6.038;2023-04-04T02:56:53;100977.16;;;1.68;59.28
59419;BME280;45224;50.904;6.038;2023-04-04T02:58:23;100970.16;;;1.63;59.26
59419;BME280;45224;50.904;6.038;2023-04-04T02:59:54;100974.25;;;1.61;59.31
59419;BME280;45224;50.904;6.038;2023-04-04T03:01:24;100969.88;;;1.59;59.58
59419;BME280;45224;50.904;6.038;2023-04-04T03:02:56;100974.25;;;1.61;59.34
59419;BME280;45224;50.904;6.038;2023-04-04T03:04:32;100974.13;;;1.58;59.64
59419;BME280;45224;50.904;6.038;2023-04-04T03:06:02;100971.41;;;1.55;60.16
59419;BME280;45224;50.904;6.038;2023-04-04T03:07:33;100953.22;;;1.49;59.72
59419;BME280;45224;50.904;6.038;2023-04-04T03:09:03;100970.41;;;1.53;59.70
59419;BME280;45224;50.904;6.038;2023-04-04T03:10:34;100967.78;;;1.52;60.10
59419;BME280;45224;50.904;6.038;2023-04-04T03:12:05;100970.19;;;1.49;60.23
59419;BME280;45224;50.904;6.038;2023-04-04T03:13:36;100966.56;;;1.45;60.55
59419;BME280;45224;50.904;6.038;2023-04-04T03:15:06;100962.19;;;1.42;60.45
59419;BME280;45224;50.904;6.038;2023-04-04T03:16:38;100973.06;;;1.40;60.45
59419;BME280;45224;50.904;6.038;2023-04-04T03:18:10;100973.06;;;1.40;60.30
59419;BME280;45224;50.904;6.038;2023-04-04T03:19:40;100973.06;;;1.40;60.49
59419;BME280;45224;50.904;6.038;2023-04-04T03:21:11;100968.84;;;1.40;60.36
59419;BME280;45224;50.904;6.038;2023-04-04T03:22:42;100975.81;;;1.43;59.59
59419;BME280;45224;50.904;6.038;2023-04-04T03:24:12;100969.94;;;1.44;60.05
59419;BME280;45224;50.904;6.038;2023-04-04T03:25:43;100967.47;;;1.45;59.99
59419;BME280;45224;50.904;6.038;2023-04-04T03:27:13;100979.41;;;1.46;59.77
59419;BME280;45224;50.904;6.038;2023-04-04T03:28:44;100974.84;;;1.41;60.10
59419;BME280;45224;50.904;6.038;2023-04-04T03:30:16;100970.53;;;1.40;60.31
59419;BME280;45224;50.904;6.038;2023-04-04T03:31:46;100969.56;;;1.38;60.96
59419;BME280;45224;50.904;6.038;2023-04-04T03:33:17;100980.56;;;1.37;60.61
59419;BME280;45224;50.904;6.038;2023-04-04T03:34:48;100967.63;;;1.34;60.38
59419;BME280;45224;50.904;6.038;2023-04-04T03:36:18;100970.28;;;1.35;60.51
59419;BME280;45224;50.904;6.038;2023-04-04T03:37:52;100964.47;;;1.38;59.91
59419;BME280;45224;50.904;6.038;2023-04-04T03:39:27;100966.94;;;1.36;60.63
59419;BME280;45224;50.904;6.038;2023-04-04T03:41:02;100974.59;;;1.36;60.31
59419;BME280;45224;50.904;6.038;2023-04-04T03:42:33;100966.84;;;1.35;60.38
59419;BME280;45224;50.904;6.038;2023-04-04T03:44:06;100982.22;;;1.36;60.68
59419;BME280;45224;50.904;6.038;2023-04-04T03:45:36;100975.19;;;1.32;61.00
59419;BME280;45224;50.904;6.038;2023-04-04T03:47:08;100985.38;;;1.32;60.46
59419;BME280;45224;50.904;6.038;2023-04-04T03:48:38;100982.56;;;1.27;61.02
59419;BME280;45224;50.904;6.038;2023-04-04T03:50:12;100983.81;;;1.19;61.31
59419;BME280;45224;50.904;6.038;2023-04-04T03:51:49;100982.59;;;1.13;62.17
59419;BME280;45224;50.904;6.038;2023-04-04T03:53:19;100983.13;;;1.07;62.57
59419;BME280;45224;50.904;6.038;2023-04-04T03:54:50;100989.00;;;0.91;63.52
59419;BME280;45224;50.904;6.038;2023-04-04T03:56:20;100980.50;;;0.90;63.07
59419;BME280;45224;50.904;6.038;2023-04-04T03:57:51;100989.50;;;0.85;63.44
59419;BME280;45224;50.904;6.038;2023-04-04T03:59:23;100981.88;;;0.85;63.29
59419;BME280;45224;50.904;6.038;2023-04-04T04:00:54;100982.06;;;0.88;63.11
59419;BME280;45224;50.904;6.038;2023-04-04T04:02:25;100981.19;;;0.88;63.46
59419;BME280;45224;50.904;6.038;2023-04-04T04:03:55;100987.16;;;0.88;63.15
59419;BME280;45224;50.904;6.038;2023-04-04T04:05:26;100988.91;;;0.89;63.34
59419;BME280;45224;50.904;6.038;2023-04-04T04:06:57;100980.72;;;0.95;62.86
59419;BME280;45224;50.904;6.038;2023-04-04T04:08:27;100978.19;;;0.95;62.58
59419;BME280;45224;50.904;6.038;2023-04-04T04:09:58;100974.88;;;0.96;62.46
59419;BME280;45224;50.904;6.038;2023-04-04T04:11:28;100974.34;;;1.02;62.26
59419;BME280;45224;50.904;6.038;2023-04-04T04:12:59;100977.84;;;1.04;62.46
59419;BME280;45224;50.904;6.038;2023-04-04T04:14:30;100977.03;;;1.05;61.81
59419;BME280;45224;50.904;6.038;2023-04-04T04:16:02;100978.03;;;1.07;61.69
59419;BME280;45224;50.904;6.038;2023-04-04T04:17:37;100974.50;;;1.05;62.44
59419;BME280;45224;50.904;6.038;2023-04-04T04:19:09;100975.41;;;1.05;62.28
59419;BME280;45224;50.904;6.038;2023-04-04T04:20:43;100978.03;;;1.07;61.72
59419;BME280;45224;50.904;6.038;2023-04-04T04:22:14;100970.22;;;1.04;62.12
59419;BME280;45224;50.904;6.038;2023-04-04T04:23:44;100975.22;;;1.02;62.34
59419;BME280;45224;50.904;6.038;2023-04-04T04:25:15;100963.63;;;0.93;62.47
59419;BME280;45224;50.904;6.038;2023-04-04T04:26:52;100956.59;;;0.88;63.09
59419;BME280;45224;50.904;6.038;2023-04-04T04:28:23;100972.03;;;0.91;63.08
59419;BME280;45224;50.904;6.038;2023-04-04T04:29:54;100971.28;;;0.93;62.60
59419;BME280;45224;50.904;6.038;2023-04-04T04:31:25;100970.22;;;0.89;62.88
59419;BME280;45224;50.904;6.038;2023-04-04T04:32:56;100973.63;;;0.89;62.98
59419;BME280;45224;50.904;6.038;2023-04-04T04:34:32;100965.72;;;0.85;62.84
59419;BME280;45224;50.904;6.038;2023-04-04T04:36:04;100963.97;;;0.84;63.57
59419;BME280;45224;50.904;6.038;2023-04-04T04:37:46;100974.94;;;0.83;63.57
59419;BME280;45224;50.904;6.038;2023-04-04T04:39:17;100962.91;;;0.80;63.55
59419;BME280;45224;50.904;6.038;2023-04-04T04:41:01;100963.44;;;0.89;63.20
59419;BME280;45224;50.904;6.038;2023-04-04T04:42:43;100962.69;;;0.90;62.88
59419;BME280;45224;50.904;6.038;2023-04-04T04:44:16;100955.91;;;0.91;63.23
59419;BME280;45224;50.904;6.038;2023-04-04T04:45:46;100963.97;;;0.84;63.64
59419;BME280;45224;50.904;6.038;2023-04-04T04:47:17;100971.50;;;0.82;63.78
59419;BME280;45224;50.904;6.038;2023-04-04T04:48:49;100962.63;;;0.76;63.82
59419;BME280;45224;50.904;6.038;2023-04-04T04:50:21;100960.19;;;0.77;63.94
59419;BME280;45224;50.904;6.038;2023-04-04T04:51:54;100963.09;;;0.83;63.47
59419;BME280;45224;50.904;6.038;2023-04-04T04:53:25;100960.63;;;0.85;63.31
59419;BME280;45224;50.904;6.038;2023-04-04T04:54:56;100957.91;;;0.82;63.46
59419;BME280;45224;50.904;6.038;2023-04-04T04:56:27;100959.59;;;0.81;63.78
59419;BME280;45224;50.904;6.038;2023-04-04T04:58:01;100967.81;;;0.77;63.71
59419;BME280;45224;50.904;6.038;2023-04-04T04:59:33;100968.63;;;0.76;63.53
59419;BME280;45224;50.904;6.038;2023-04-04T05:01:05;100976.28;;;0.76;64.44
59419;BME280;45224;50.904;6.038;2023-04-04T05:02:42;100978.00;;;0.77;63.77
59419;BME280;45224;50.904;6.038;2023-04-04T05:04:13;100974.50;;;0.75;63.60
59419;BME280;45224;50.904;6.038;2023-04-04T05:05:58;100986.44;;;0.76;63.81
59419;BME280;45224;50.904;6.038;2023-04-04T05:07:28;100978.00;;;0.77;63.81
59419;BME280;45224;50.904;6.038;2023-04-04T05:08:59;100974.50;;;0.75;63.79
59419;BME280;45224;50.904;6.038;2023-04-04T05:10:36;100973.44;;;0.71;63.84
59419;BME280;45224;50.904;6.038;2023-04-04T05:12:08;100981.94;;;0.72;65.03
59419;BME280;45224;50.904;6.038;2023-04-04T05:13:45;100976.78;;;0.70;64.06
59419;BME280;45224;50.904;6.038;2023-04-04T05:15:16;100975.72;;;0.67;64.24
59419;BME280;45224;50.904;6.038;2023-04-04T05:16:50;100973.16;;;0.67;64.23
59419;BME280;45224;50.904;6.038;2023-04-04T05:18:21;100983.34;;;0.67;65.41
59419;BME280;45224;50.904;6.038;2023-04-04T05:19:51;100987.47;;;0.65;64.92
59419;BME280;45224;50.904;6.038;2023-04-04T05:21:25;100992.56;;;0.65;64.61
59419;BME280;45224;50.904;6.038;2023-04-04T05:22:59;100981.50;;;0.64;64.78
59419;BME280;45224;50.904;6.038;2023-04-04T05:24:37;100986.59;;;0.64;64.82
59419;BME280;45224;50.904;6.038;2023-04-04T05:26:08;100985.38;;;0.72;64.83
59419;BME280;45224;50.904;6.038;2023-04-04T05:27:45;100987.59;;;0.81;64.76
59419;BME280;45224;50.904;6.038;2023-04-04T05:29:17;100998.28;;;0.76;64.84
59419;BME280;45224;50.904;6.038;2023-04-04T05:30:51;100974.94;;;0.68;64.65
59419;BME280;45224;50.904;6.038;2023-04-04T05:32:25;100992.31;;;0.75;64.95
59419;BME280;45224;50.904;6.038;2023-04-04T05:34:06;100987.31;;;0.77;64.82
59419;BME280;45224;50.904;6.038;2023-04-04T05:35:41;100984.00;;;0.78;64.69
59419;BME280;45224;50.904;6.038;2023-04-04T05:37:11;100983.09;;;0.77;65.70
59419;BME280;45224;50.904;6.038;2023-04-04T05:38:42;100983.28;;;0.80;65.46
59419;BME280;45224;50.904;6.038;2023-04-04T05:40:14;100985.03;;;0.81;65.71
59419;BME280;45224;50.904;6.038;2023-04-04T05:41:47;100994.00;;;0.89;65.50
59419;BME280;45224;50.904;6.038;2023-04-04T05:43:20;100989.09;;;0.93;65.49
59419;BME280;45224;50.904;6.038;2023-04-04T05:45:00;100989.38;;;0.97;65.35
59419;BME280;45224;50.904;6.038;2023-04-04T05:46:34;100980.66;;;0.94;64.92
59419;BME280;45224;50.904;6.038;2023-04-04T05:48:05;100996.81;;;1.09;64.58
59419;BME280;45224;50.904;6.038;2023-04-04T05:49:41;100993.81;;;1.16;64.06
59419;BME280;45224;50.904;6.038;2023-04-04T05:51:11;100998.59;;;1.25;63.90
59419;BME280;45224;50.904;6.038;2023-04-04T05:52:53;100996.31;;;1.30;64.11
59419;BME280;45224;50.904;6.038;2023-04-04T05:54:24;101005.44;;;1.41;63.68
59419;BME280;45224;50.904;6.038;2023-04-04T05:55:56;101001.56;;;1.33;63.88
59419;BME280;45224;50.904;6.038;2023-04-04T05:57:33;100999.97;;;1.35;64.25
59419;BME280;45224;50.904;6.038;2023-04-04T05:59:04;101005.44;;;1.41;63.50
59419;BME280;45224;50.904;6.038;2023-04-04T06:00:39;100999.59;;;1.43;63.57
59419;BME280;45224;50.904;6.038;2023-04-04T06:02:11;101011.19;;;1.53;63.07
59419;BME280;45224;50.904;6.038;2023-04-04T06:03:46;101005.09;;;1.66;62.95
59419;BME280;45224;50.904;6.038;2023-04-04T06:05:21;101000.44;;;1.74;62.51
59419;BME280;45224;50.904;6.038;2023-04-04T06:06:51;101007.78;;;1.84;62.10
59419;BME280;45224;50.904;6.038;2023-04-04T06:08:24;101011.78;;;1.95;61.75
59419;BME280;45224;50.904;6.038;2023-04-04T06:09:55;101014.06;;;2.06;61.70
59419;BME280;45224;50.904;6.038;2023-04-04T06:11:25;101008.03;;;2.04;60.95
59419;BME280;45224;50.904;6.038;2023-04-04T06:13:04;101017.25;;;2.18;60.71
59419;BME280;45224;50.904;6.038;2023-04-04T06:14:35;101011.53;;;2.22;60.71
59419;BME280;45224;50.904;6.038;2023-04-04T06:16:08;101012.50;;;2.41;60.43
59419;BME280;45224;50.904;6.038;2023-04-04T06:17:39;101005.97;;;2.46;59.50
59419;BME280;45224;50.904;6.038;2023-04-04T06:19:09;101007.88;;;2.50;59.01
59419;BME280;45224;50.904;6.038;2023-04-04T06:20:40;101007.41;;;2.57;59.37
59419;BME280;45224;50.904;6.038;2023-04-04T06:22:11;101009.88;;;2.72;59.19
59419;BME280;45224;50.904;6.038;2023-04-04T06:23:46;101000.69;;;2.76;59.42
59419;BME280;45224;50.904;6.038;2023-04-04T06:25:17;101009.63;;;2.84;59.45
59419;BME280;45224;50.904;6.038;2023-04-04T06:26:48;101014.00;;;2.86;58.32
59419;BME280;45224;50.904;6.038;2023-04-04T06:28:21;101014.25;;;2.91;58.32
59419;BME280;45224;50.904;6.038;2023-04-04T06:29:52;101004.28;;;2.96;59.14
59419;BME280;45224;50.904;6.038;2023-04-04T06:31:24;101020.28;;;3.09;58.21
59419;BME280;45224;50.904;6.038;2023-04-04T06:33:00;101020.94;;;3.05;58.41
59419;BME280;45224;50.904;6.038;2023-04-04T06:34:32;101011.72;;;2.74;59.64
59419;BME280;45224;50.904;6.038;2023-04-04T06:36:04;101017.34;;;2.85;58.97
59419;BME280;45224;50.904;6.038;2023-04-04T06:37:35;101022.34;;;3.00;59.08
59419;BME280;45224;50.904;6.038;2023-04-04T06:39:13;101008.34;;;3.10;58.72
59419;BME280;45224;50.904;6.038;2023-04-04T06:40:44;101013.06;;;3.19;58.53
59419;BME280;45224;50.904;6.038;2023-04-04T06:42:15;101018.78;;;3.31;59.12
59419;BME280;45224;50.904;6.038;2023-04-04T06:43:51;101022.00;;;3.27;58.66
59419;BME280;45224;50.904;6.038;2023-04-04T06:45:22;101029.19;;;3.18;58.22
59419;BME280;45224;50.904;6.038;2023-04-04T06:46:54;101030.44;;;3.26;57.97
59419;BME280;45224;50.904;6.038;2023-04-04T06:48:25;101032.22;;;3.27;58.17
59419;BME280;45224;50.904;6.038;2023-04-04T06:49:55;101029.22;;;3.36;57.11
59419;BME280;45224;50.904;6.038;2023-04-04T06:51:26;101035.81;;;3.48;58.59
59419;BME280;45224;50.904;6.038;2023-04-04T06:52:57;101022.59;;;3.57;57.48
59419;BME280;45224;50.904;6.038;2023-04-04T06:54:29;101032.84;;;3.75;57.10
59419;BME280;45224;50.904;6.038;2023-04-04T06:56:00;101040.22;;;3.69;57.64
59419;BME280;45224;50.904;6.038;2023-04-04T06:57:30;101029.91;;;3.68;56.95
59419;BME280;45224;50.904;6.038;2023-04-04T06:59:01;101037.06;;;3.93;57.37
59419;BME280;45224;50.904;6.038;2023-04-04T07:00:31;101029.91;;;3.86;56.46
59419;BME280;45224;50.904;6.038;2023-04-04T07:02:02;101042.63;;;3.84;56.69
59419;BME280;45224;50.904;6.038;2023-04-04T07:03:32;101041.28;;;3.92;55.81
59419;BME280;45224;50.904;6.038;2023-04-04T07:05:03;101052.06;;;3.67;56.60
59419;BME280;45224;50.904;6.038;2023-04-04T07:06:33;101043.84;;;3.92;56.29
59419;BME280;45224;50.904;6.038;2023-04-04T07:08:04;101044.06;;;3.97;55.90
59419;BME280;45224;50.904;6.038;2023-04-04T07:09:35;101052.44;;;3.93;55.83
59419;BME280;45224;50.904;6.038;2023-04-04T07:11:06;101062.38;;;3.34;56.88
59419;BME280;45224;50.904;6.038;2023-04-04T07:12:38;101052.84;;;3.48;57.04
59419;BME280;45224;50.904;6.038;2023-04-04T07:14:08;101051.59;;;3.76;56.66
59419;BME280;45224;50.904;6.038;2023-04-04T07:15:39;101050.50;;;4.07;56.57
59419;BME280;45224;50.904;6.038;2023-04-04T07:17:09;101046.88;;;4.21;54.52
59419;BME280;45224;50.904;6.038;2023-04-04T07:18:40;101052.63;;;4.15;54.57
59419;BME280;45224;50.904;6.038;2023-04-04T07:20:11;101054.53;;;4.39;53.95
59419;BME280;45224;50.904;6.038;2023-04-04T07:21:41;101050.31;;;4.39;54.33
59419;BME280;45224;50.904;6.038;2023-04-04T07:23:12;101048.97;;;4.10;54.34
59419;BME280;45224;50.904;6.038;2023-04-04T07:24:42;101038.66;;;4.46;54.01
59419;BME280;45224;50.904;6.038;2023-04-04T07:26:14;101049.63;;;4.63;53.66
59419;BME280;45224;50.904;6.038;2023-04-04T07:27:44;101050.25;;;4.57;53.67
59419;BME280;45224;50.904;6.038;2023-04-04T07:29:15;101044.09;;;4.93;53.90
59419;BME280;45224;50.904;6.038;2023-04-04T07:30:45;101041.25;;;5.06;51.83
59419;BME280;45224;50.904;6.038;2023-04-04T07:32:16;101041.25;;;5.27;51.77
59419;BME280;45224;50.904;6.038;2023-04-04T07:33:46;101034.75;;;5.36;51.61
59419;BME280;45224;50.904;6.038;2023-04-04T07:35:17;101027.75;;;5.32;52.23
59419;BME280;45224;50.904;6.038;2023-04-04T07:36:47;101036.94;;;5.69;52.00
59419;BME280;45224;50.904;6.038;2023-04-04T07:38:18;101034.56;;;5.96;48.42
59419;BME280;45224;50.904;6.038;2023-04-04T07:39:48;101028.09;;;6.04;47.91
59419;BME280;45224;50.904;6.038;2023-04-04T07:41:20;101020.03;;;6.17;47.85
59419;BME280;45224;50.904;6.038;2023-04-04T07:42:50;101028.47;;;6.37;46.77
59419;BME280;45224;50.904;6.038;2023-04-04T07:44:23;101028.09;;;6.51;45.93
59419;BME280;45224;50.904;6.038;2023-04-04T07:45:54;101029.59;;;6.46;45.83
59419;BME280;45224;50.904;6.038;2023-04-04T07:47:25;101020.41;;;6.51;44.95
59419;BME280;45224;50.904;6.038;2023-04-04T07:48:56;101025.22;;;6.66;46.32
59419;BME280;45224;50.904;6.038;2023-04-04T07:50:27;101025.63;;;6.78;46.44
59419;BME280;45224;50.904;6.038;2023-04-04T07:51:57;101023.22;;;6.83;46.70
59419;BME280;45224;50.904;6.038;2023-04-04T07:53:28;101025.72;;;6.57;46.47
59419;BME280;45224;50.904;6.038;2023-04-04T07:54:58;101030.63;;;6.73;46.51
59419;BME280;45224;50.904;6.038;2023-04-04T07:56:30;101021.25;;;7.00;44.29
59419;BME280;45224;50.904;6.038;2023-04-04T07:58:00;101014.50;;;7.29;44.86
59419;BME280;45224;50.904;6.038;2023-04-04T07:59:31;100997.41;;;7.31;43.54
59419;BME280;45224;50.904;6.038;2023-04-04T08:01:02;101009.03;;;7.45;42.72
59419;BME280;45224;50.904;6.038;2023-04-04T08:02:33;101012.47;;;7.73;43.15
59419;BME280;45224;50.904;6.038;2023-04-04T08:04:03;101012.19;;;7.64;41.77
59419;BME280;45224;50.904;6.038;2023-04-04T08:05:34;101017.13;;;7.30;41.10
59419;BME280;45224;50.904;6.038;2023-04-04T08:07:05;101017.41;;;7.12;41.12
59419;BME280;45224;50.904;6.038;2023-04-04T08:08:35;101013.53;;;7.25;41.40
59419;BME280;45224;50.904;6.038;2023-04-04T08:10:06;101015.72;;;7.40;40.84
59419;BME280;45224;50.904;6.038;2023-04-04T08:11:37;101027.59;;;7.62;40.63